createdAt,value
2022-07-27T00:00:02.588Z,21.1
2022-07-27T00:05:01.768Z,21.1
2022-07-27T00:10:01.803Z,21.1
2022-07-27T00:15:01.996Z,21.1
2022-07-27T00:20:02.101Z,21.1
2022-07-27T00:25:02.390Z,21.1
2022-07-27T00:30:02.586Z,21.1
2022-07-27T00:35:01.660Z,21.1
2022-07-27T00:40:01.837Z,21.1
2022-07-27T00:45:01.947Z,21.1
2022-07-27T00:50:02.138Z,21.1
2022-07-27T00:55:02.275Z,21.1
2022-07-27T01:00:02.450Z,21.1
2022-07-27T01:05:02.514Z,21.1
2022-07-27T01:10:01.692Z,21.1
2022-07-27T01:15:01.844Z,21.1
2022-07-27T01:20:01.981Z,21.1
2022-07-27T01:30:02.523Z,21.1
2022-07-27T01:35:02.804Z,21.1
2022-07-27T01:40:02.692Z,21.1
2022-07-27T01:45:01.791Z,21.1
2022-07-27T01:50:02.799Z,21.1
2022-07-27T01:55:02.175Z,21.1
2022-07-27T02:00:02.249Z,21.1
2022-07-27T02:05:02.541Z,21.1
2022-07-27T02:10:02.538Z,21.1
2022-07-27T02:15:05.451Z,21.1
2022-07-27T02:20:01.852Z,21.1
2022-07-27T02:25:01.898Z,21.1
2022-07-27T02:30:02.129Z,21.1
2022-07-27T02:35:03.038Z,21.1
2022-07-27T02:40:02.382Z,21.1
2022-07-27T02:45:02.608Z,21.1
2022-07-27T02:50:01.674Z,21.1
2022-07-27T02:55:01.940Z,21.1
2022-07-27T03:00:03.636Z,21.1
2022-07-27T03:05:04.657Z,21.1
2022-07-27T03:10:03.339Z,21.1
2022-07-27T03:15:16.986Z,21.1
2022-07-27T03:20:03.003Z,21.1
2022-07-27T03:25:02.476Z,21.1
2022-07-27T03:30:02.827Z,21.1
2022-07-27T03:35:02.884Z,21.1
2022-07-27T03:40:02.919Z,21.1
2022-07-27T03:45:18.231Z,21.1
2022-07-27T03:50:03.460Z,21.1
2022-07-27T03:55:02.908Z,21.1
2022-07-27T04:00:01.849Z,21.1
2022-07-27T04:05:02.925Z,21.1
2022-07-27T04:10:03.709Z,21.1
2022-07-27T04:15:02.363Z,21.1
2022-07-27T04:20:02.527Z,21.1
2022-07-27T04:25:03.020Z,21.1
2022-07-27T04:30:05.692Z,21.1
2022-07-27T04:35:03.134Z,21.1
2022-07-27T04:40:03.334Z,21.1
2022-07-27T04:45:01.749Z,21.1
2022-07-27T04:50:01.864Z,21.1
2022-07-27T04:55:02.125Z,21.1
2022-07-27T05:00:02.191Z,21.1
2022-07-27T05:05:03.130Z,21.1
2022-07-27T05:10:03.245Z,21.1
2022-07-27T05:15:02.719Z,21.1
2022-07-27T05:20:01.697Z,21.1
2022-07-27T05:25:01.912Z,21.1
2022-07-27T05:30:02.129Z,21.1
2022-07-27T05:35:03.065Z,21.1
2022-07-27T05:40:03.428Z,21.1
2022-07-27T05:45:03.591Z,21.1
2022-07-27T05:50:01.724Z,21.1
2022-07-27T05:55:01.825Z,21.1
2022-07-27T06:00:02.901Z,21.1
2022-07-27T06:05:03.123Z,21.1
2022-07-27T06:10:03.133Z,15.8
2022-07-27T06:15:03.435Z,15.9
2022-07-27T06:20:02.623Z,16.1
2022-07-27T06:25:01.734Z,16.3
2022-07-27T06:30:02.767Z,16.7
2022-07-27T06:35:02.833Z,16.9
2022-07-27T06:40:02.968Z,16.9
2022-07-27T06:45:03.291Z,16.8
2022-07-27T06:50:02.546Z,16.9
2022-07-27T06:55:01.686Z,17
2022-07-27T07:00:02.732Z,17
2022-07-27T07:05:02.814Z,17.1
2022-07-27T07:10:02.920Z,17
2022-07-27T07:15:03.173Z,17.1
2022-07-27T07:20:02.487Z,17.1
2022-07-27T07:25:03.309Z,17.1
2022-07-27T07:30:02.651Z,17.2
2022-07-27T07:35:02.737Z,17.4
2022-07-27T07:45:01.651Z,17.6
2022-07-27T07:50:01.938Z,17.8
2022-07-27T07:55:02.154Z,17.9
2022-07-27T08:00:02.311Z,18
2022-07-27T08:05:03.091Z,17.9
2022-07-27T08:10:03.408Z,17.8
2022-07-27T08:15:02.693Z,17.6
2022-07-27T08:20:01.837Z,17.4
2022-07-27T08:25:02.002Z,17.5
2022-07-27T08:30:02.423Z,17.6
2022-07-27T08:35:03.088Z,17.6
2022-07-27T08:40:37.782Z,17.5
2022-07-27T08:45:02.493Z,17.5
2022-07-27T08:50:02.633Z,17.8
2022-07-27T08:55:01.687Z,18.1
2022-07-27T09:00:01.849Z,18.5
2022-07-27T09:05:02.860Z,19
2022-07-27T09:10:03.028Z,19.2
2022-07-27T09:15:03.312Z,19.4
2022-07-27T09:20:02.647Z,19
2022-07-27T09:25:01.722Z,18.8
2022-07-27T09:30:02.681Z,18.7
2022-07-27T09:35:02.998Z,18.6
2022-07-27T09:40:03.120Z,18.6
2022-07-27T09:45:03.375Z,18.7
2022-07-27T09:50:02.489Z,18.7
2022-07-27T09:55:02.686Z,18.8
2022-07-27T10:00:02.509Z,18.7
2022-07-27T10:05:02.803Z,18.9
2022-07-27T10:10:03.135Z,19.7
2022-07-27T10:15:03.112Z,20.4
2022-07-27T10:20:02.429Z,20.3
2022-07-27T10:25:02.587Z,20.1
2022-07-27T10:30:02.053Z,20.3
2022-07-27T10:35:02.644Z,20.4
2022-07-27T10:40:02.824Z,20.2
2022-07-27T10:45:03.078Z,20.2
2022-07-27T10:50:02.355Z,20
2022-07-27T10:55:02.526Z,20.2
2022-07-27T11:00:13.480Z,20.8
2022-07-27T11:05:02.595Z,20.8
2022-07-27T11:10:04.245Z,20.7
2022-07-27T11:15:03.046Z,20.6
2022-07-27T11:20:02.278Z,20.5
2022-07-27T11:25:02.402Z,20.4
2022-07-27T11:30:03.365Z,20.4
2022-07-27T11:35:05.458Z,20.4
2022-07-27T11:40:14.142Z,20.4
2022-07-27T11:45:03.170Z,20.4
2022-07-27T11:50:02.416Z,20.4
2022-07-27T11:55:02.554Z,20.4
2022-07-27T12:00:01.691Z,20.4
2022-07-27T12:05:03.490Z,20.4
2022-07-27T12:10:02.981Z,20.4
2022-07-27T12:15:16.470Z,20.4
2022-07-27T12:20:02.129Z,20.4
2022-07-27T12:25:02.229Z,20.4
2022-07-27T12:30:02.485Z,20.4
2022-07-27T12:35:03.385Z,20.4
2022-07-27T12:40:02.485Z,20.4
2022-07-27T12:45:02.815Z,20.4
2022-07-27T12:50:02.060Z,20.4
2022-07-27T12:55:02.244Z,20.4
2022-07-27T13:00:03.191Z,20.4
2022-07-27T13:05:03.282Z,20.4
2022-07-27T13:10:04.161Z,20.4
2022-07-27T13:15:03.257Z,20.4
2022-07-27T13:20:01.962Z,20.4
2022-07-27T13:25:02.131Z,20.4
2022-07-27T13:30:02.427Z,20.4
2022-07-27T13:35:03.236Z,20.4
2022-07-27T13:40:03.385Z,20.4
2022-07-27T13:45:08.961Z,20.4
2022-07-27T13:50:01.822Z,20.4
2022-07-27T13:55:01.983Z,20.4
2022-07-27T14:00:02.372Z,20.4
2022-07-27T14:05:04.275Z,20.4
2022-07-27T14:10:03.414Z,20.4
2022-07-27T14:15:02.611Z,20.4
2022-07-27T14:20:01.897Z,20.4
2022-07-27T14:25:01.995Z,20.4
2022-07-27T14:30:02.238Z,20.4
2022-07-27T14:35:03.080Z,20.4
2022-07-27T14:40:03.231Z,20.4
2022-07-27T14:45:03.424Z,20.4
2022-07-27T14:50:01.788Z,20.4
2022-07-27T14:55:01.826Z,20.4
2022-07-27T15:00:02.047Z,20.4
2022-07-27T15:05:03.437Z,20.4
2022-07-27T15:10:03.243Z,20.4
2022-07-27T15:15:03.423Z,20.4
2022-07-27T15:20:02.684Z,20.4
2022-07-27T15:25:01.725Z,20.4
2022-07-27T15:30:01.867Z,20.4
2022-07-27T15:35:02.907Z,20.4
2022-07-27T15:40:03.063Z,20.4
2022-07-27T15:45:03.375Z,20.4
2022-07-27T15:50:02.572Z,20.4
2022-07-27T15:55:01.657Z,20.4
2022-07-27T16:00:01.813Z,20.4
2022-07-27T16:05:03.026Z,20.4
2022-07-27T16:10:03.195Z,20.4
2022-07-27T16:15:03.221Z,20.4
2022-07-27T16:20:02.574Z,20.4
2022-07-27T16:25:01.757Z,20.4
2022-07-27T16:30:01.913Z,20.4
2022-07-27T16:35:02.769Z,20.4
2022-07-27T16:40:02.881Z,20.4
2022-07-27T16:45:03.172Z,20.4
2022-07-27T16:50:02.461Z,20.4
2022-07-27T16:55:02.607Z,20.4
2022-07-27T17:00:01.770Z,20.4
2022-07-27T17:05:02.688Z,20.4
2022-07-27T17:10:02.806Z,20.4
2022-07-27T17:15:03.099Z,20.4
2022-07-27T17:20:02.401Z,20.4
2022-07-27T17:25:02.550Z,20.4
2022-07-27T17:30:02.513Z,20.4
2022-07-27T17:35:02.668Z,20.4
2022-07-27T17:40:02.970Z,20.4
2022-07-27T17:45:03.106Z,20.4
2022-07-27T17:50:02.601Z,20.4
2022-07-27T17:55:01.806Z,20.4
2022-07-27T18:00:01.908Z,20.4
2022-07-27T18:05:03.123Z,20.4
2022-07-27T18:10:03.294Z,20.4
2022-07-27T18:15:02.642Z,20.4
2022-07-27T18:20:01.975Z,20.4
2022-07-27T18:25:02.564Z,20.4
2022-07-27T18:30:02.731Z,20.4
2022-07-27T18:35:02.731Z,20.4
2022-07-27T18:40:03.003Z,20.4
2022-07-27T18:45:03.221Z,20.4
2022-07-27T18:50:02.439Z,20.4
2022-07-27T18:55:02.655Z,20.4
2022-07-27T19:00:02.716Z,20.4
2022-07-27T19:05:02.860Z,20.4
2022-07-27T19:10:03.038Z,20.4
2022-07-27T19:15:03.423Z,20.4
2022-07-27T19:20:02.715Z,20.4
2022-07-27T19:25:01.717Z,20.4
2022-07-27T19:30:02.020Z,20.4
2022-07-27T19:35:03.082Z,20.4
2022-07-27T19:40:14.666Z,20.4
2022-07-27T19:45:03.242Z,20.4
2022-07-27T19:50:02.676Z,20.4
2022-07-27T19:55:02.671Z,20.4
2022-07-27T20:00:01.732Z,20.4
2022-07-27T20:05:02.873Z,20.4
2022-07-27T20:10:03.513Z,20.4
2022-07-27T20:15:03.102Z,20.4
2022-07-27T20:20:02.446Z,20.4
2022-07-27T20:25:02.670Z,20.4
2022-07-27T20:30:01.756Z,20.4
2022-07-27T20:35:02.609Z,20.4
2022-07-27T20:40:02.751Z,20.4
2022-07-27T20:45:03.194Z,20.4
2022-07-27T20:50:02.470Z,20.4
2022-07-27T20:55:02.596Z,20.4
2022-07-27T21:00:03.599Z,20.4
2022-07-27T21:05:02.824Z,20.4
2022-07-27T21:10:02.761Z,20.4
2022-07-27T21:15:03.080Z,20.4
2022-07-27T21:20:02.289Z,20.4
2022-07-27T21:25:02.327Z,20.4
2022-07-27T21:30:02.535Z,20.4
2022-07-27T21:35:06.824Z,20.4
2022-07-27T21:40:02.702Z,20.4
2022-07-27T21:45:03.028Z,20.4
2022-07-27T21:50:02.190Z,20.4
2022-07-27T21:55:02.333Z,20.4
2022-07-27T22:00:02.976Z,20.4
2022-07-27T22:05:02.615Z,20.4
2022-07-27T22:10:01.876Z,20.4
2022-07-27T22:15:01.963Z,20.4
2022-07-27T22:20:02.260Z,20.4
2022-07-27T22:25:02.381Z,20.4
2022-07-27T22:30:02.359Z,20.4
2022-07-27T22:35:02.491Z,20.4
2022-07-27T22:40:02.576Z,20.4
2022-07-27T22:45:02.552Z,20.4
2022-07-27T22:50:01.866Z,20.4
2022-07-27T22:55:02.526Z,20.4
2022-07-27T23:00:03.939Z,20.4
2022-07-27T23:05:02.525Z,20.4
2022-07-27T23:10:02.511Z,20.4
2022-07-27T23:15:02.683Z,20.4
2022-07-27T23:20:01.706Z,20.4
2022-07-27T23:25:01.806Z,20.4
2022-07-27T23:30:02.065Z,20.4
2022-07-27T23:35:02.897Z,20.4
2022-07-27T23:40:02.296Z,20.4
2022-07-27T23:45:02.478Z,20.4
2022-07-27T23:50:02.589Z,20.4
2022-07-27T23:55:01.707Z,20.4
